sensor_id;sensor_type;location;lat;lon;timestamp;temperature;humidity
51922;DHT22;37948;53.260;6.394;2022-12-07T00:01:40;3.90;99.90
51922;DHT22;37948;53.260;6.394;2022-12-07T00:04:08;3.90;99.90
51922;DHT22;37948;53.260;6.394;2022-12-07T00:06:40;3.90;99.90
51922;DHT22;37948;53.260;6.394;2022-12-07T00:09:08;3.80;99.90
51922;DHT22;37948;53.260;6.394;2022-12-07T00:11:35;3.80;99.90
51922;DHT22;37948;53.260;6.394;2022-12-07T00:14:03;3.90;99.90
51922;DHT22;37948;53.260;6.394;2022-12-07T00:16:31;3.90;99.90
51922;DHT22;37948;53.260;6.394;2022-12-07T00:18:57;3.90;99.90
51922;DHT22;37948;53.260;6.394;2022-12-07T00:21:29;4.00;99.90
51922;DHT22;37948;53.260;6.394;2022-12-07T00:23:56;4.10;99.90
51922;DHT22;37948;53.260;6.394;2022-12-07T00:26:30;4.10;99.90
51922;DHT22;37948;53.260;6.394;2022-12-07T00:28:58;4.10;99.90
51922;DHT22;37948;53.260;6.394;2022-12-07T00:31:27;4.10;99.90
51922;DHT22;37948;53.260;6.394;2022-12-07T00:33:53;4.00;99.90
51922;DHT22;37948;53.260;6.394;2022-12-07T00:36:21;4.10;99.90
51922;DHT22;37948;53.260;6.394;2022-12-07T00:38:47;4.20;99.90
51922;DHT22;37948;53.260;6.394;2022-12-07T00:41:15;4.20;99.90
51922;DHT22;37948;53.260;6.394;2022-12-07T00:43:42;4.20;99.90
51922;DHT22;37948;53.260;6.394;2022-12-07T00:46:09;4.20;99.90
51922;DHT22;37948;53.260;6.394;2022-12-07T00:48:35;4.20;99.90
51922;DHT22;37948;53.260;6.394;2022-12-07T00:51:01;4.20;99.90
51922;DHT22;37948;53.260;6.394;2022-12-07T00:53:27;4.20;99.90
51922;DHT22;37948;53.260;6.394;2022-12-07T00:55:53;4.30;99.90
51922;DHT22;37948;53.260;6.394;2022-12-07T00:58:21;4.30;99.90
51922;DHT22;37948;53.260;6.394;2022-12-07T01:00:46;4.30;99.90
51922;DHT22;37948;53.260;6.394;2022-12-07T01:03:14;4.20;99.90
51922;DHT22;37948;53.260;6.394;2022-12-07T01:05:40;4.20;99.90
51922;DHT22;37948;53.260;6.394;2022-12-07T01:08:13;4.10;99.90
51922;DHT22;37948;53.260;6.394;2022-12-07T01:10:39;4.10;99.90
51922;DHT22;37948;53.260;6.394;2022-12-07T01:13:04;4.10;99.90
51922;DHT22;37948;53.260;6.394;2022-12-07T01:15:30;4.00;99.90
51922;DHT22;37948;53.260;6.394;2022-12-07T01:17:55;4.00;99.90
51922;DHT22;37948;53.260;6.394;2022-12-07T01:20:21;4.00;99.90
51922;DHT22;37948;53.260;6.394;2022-12-07T01:22:47;4.10;99.90
51922;DHT22;37948;53.260;6.394;2022-12-07T01:25:13;4.10;99.90
51922;DHT22;37948;53.260;6.394;2022-12-07T01:27:39;4.20;99.90
51922;DHT22;37948;53.260;6.394;2022-12-07T01:30:06;4.20;99.90
51922;DHT22;37948;53.260;6.394;2022-12-07T01:32:32;4.20;99.90
51922;DHT22;37948;53.260;6.394;2022-12-07T01:34:58;4.20;99.90
51922;DHT22;37948;53.260;6.394;2022-12-07T01:37:23;4.20;99.90
51922;DHT22;37948;53.260;6.394;2022-12-07T01:39:50;4.20;99.90
51922;DHT22;37948;53.260;6.394;2022-12-07T01:42:17;4.20;99.90
51922;DHT22;37948;53.260;6.394;2022-12-07T01:47:51;4.20;99.90
51922;DHT22;37948;53.260;6.394;2022-12-07T01:50:18;4.20;99.90
51922;DHT22;37948;53.260;6.394;2022-12-07T01:52:45;4.20;99.90
51922;DHT22;37948;53.260;6.394;2022-12-07T01:55:14;4.10;99.90
51922;DHT22;37948;53.260;6.394;2022-12-07T01:57:47;4.10;99.90
51922;DHT22;37948;53.260;6.394;2022-12-07T02:00:13;4.10;99.90
51922;DHT22;37948;53.260;6.394;2022-12-07T02:05:16;4.10;99.90
51922;DHT22;37948;53.260;6.394;2022-12-07T02:07:43;4.10;99.90
51922;DHT22;37948;53.260;6.394;2022-12-07T02:10:18;4.10;99.90
51922;DHT22;37948;53.260;6.394;2022-12-07T02:12:48;4.10;99.90
51922;DHT22;37948;53.260;6.394;2022-12-07T02:15:14;4.10;99.90
51922;DHT22;37948;53.260;6.394;2022-12-07T02:17:51;4.10;99.90
51922;DHT22;37948;53.260;6.394;2022-12-07T02:20:33;4.10;99.90
51922;DHT22;37948;53.260;6.394;2022-12-07T02:29:00;4.30;99.90
51922;DHT22;37948;53.260;6.394;2022-12-07T02:31:32;4.40;99.90
51922;DHT22;37948;53.260;6.394;2022-12-07T02:34:05;4.50;99.90
51922;DHT22;37948;53.260;6.394;2022-12-07T02:36:42;4.50;99.90
51922;DHT22;37948;53.260;6.394;2022-12-07T02:39:18;4.50;99.90
51922;DHT22;37948;53.260;6.394;2022-12-07T02:41:52;4.50;99.90
51922;DHT22;37948;53.260;6.394;2022-12-07T02:44:25;4.50;99.90
51922;DHT22;37948;53.260;6.394;2022-12-07T02:47:05;4.50;99.90
51922;DHT22;37948;53.260;6.394;2022-12-07T02:49:33;4.40;99.90
51922;DHT22;37948;53.260;6.394;2022-12-07T02:52:00;4.40;99.90
51922;DHT22;37948;53.260;6.394;2022-12-07T02:54:26;4.50;99.90
51922;DHT22;37948;53.260;6.394;2022-12-07T02:57:04;4.50;99.90
51922;DHT22;37948;53.260;6.394;2022-12-07T02:59:56;4.50;99.90
51922;DHT22;37948;53.260;6.394;2022-12-07T03:11:24;4.30;99.90
51922;DHT22;37948;53.260;6.394;2022-12-07T03:14:06;4.20;99.90
51922;DHT22;37948;53.260;6.394;2022-12-07T03:16:40;4.20;99.90
51922;DHT22;37948;53.260;6.394;2022-12-07T03:19:14;4.10;99.90
51922;DHT22;37948;53.260;6.394;2022-12-07T03:21:45;4.10;99.90
51922;DHT22;37948;53.260;6.394;2022-12-07T03:24:21;4.10;99.90
51922;DHT22;37948;53.260;6.394;2022-12-07T03:27:06;4.10;99.90
51922;DHT22;37948;53.260;6.394;2022-12-07T03:29:54;4.10;99.90
51922;DHT22;37948;53.260;6.394;2022-12-07T03:32:25;4.00;99.90
51922;DHT22;37948;53.260;6.394;2022-12-07T03:34:58;4.00;99.90
51922;DHT22;37948;53.260;6.394;2022-12-07T03:37:35;4.00;99.90
51922;DHT22;37948;53.260;6.394;2022-12-07T03:40:13;3.90;99.90
51922;DHT22;37948;53.260;6.394;2022-12-07T03:42:40;3.90;99.90
51922;DHT22;37948;53.260;6.394;2022-12-07T03:45:07;4.00;99.90
51922;DHT22;37948;53.260;6.394;2022-12-07T03:50:02;3.90;99.90
51922;DHT22;37948;53.260;6.394;2022-12-07T03:53:03;3.90;99.90
51922;DHT22;37948;53.260;6.394;2022-12-07T03:55:33;3.90;99.90
51922;DHT22;37948;53.260;6.394;2022-12-07T03:58:06;3.90;99.90
51922;DHT22;37948;53.260;6.394;2022-12-07T04:00:32;3.90;99.90
51922;DHT22;37948;53.260;6.394;2022-12-07T04:02:58;3.90;99.90
51922;DHT22;37948;53.260;6.394;2022-12-07T04:05:24;3.90;99.90
51922;DHT22;37948;53.260;6.394;2022-12-07T04:07:50;3.90;99.90
51922;DHT22;37948;53.260;6.394;2022-12-07T04:10:16;3.90;99.90
51922;DHT22;37948;53.260;6.394;2022-12-07T04:12:41;3.90;99.90
51922;DHT22;37948;53.260;6.394;2022-12-07T04:15:08;3.90;99.90
51922;DHT22;37948;53.260;6.394;2022-12-07T04:17:33;3.90;99.90
51922;DHT22;37948;53.260;6.394;2022-12-07T04:19:59;3.90;99.90
51922;DHT22;37948;53.260;6.394;2022-12-07T04:22:24;3.90;99.90
51922;DHT22;37948;53.260;6.394;2022-12-07T04:24:50;3.90;99.90
51922;DHT22;37948;53.260;6.394;2022-12-07T04:27:16;4.00;99.90
51922;DHT22;37948;53.260;6.394;2022-12-07T04:29:41;4.00;99.90
51922;DHT22;37948;53.260;6.394;2022-12-07T04:32:07;4.10;99.90
51922;DHT22;37948;53.260;6.394;2022-12-07T04:34:32;4.10;99.90
51922;DHT22;37948;53.260;6.394;2022-12-07T04:36:58;4.10;99.90
51922;DHT22;37948;53.260;6.394;2022-12-07T04:39:26;4.10;99.90
51922;DHT22;37948;53.260;6.394;2022-12-07T04:41:52;4.20;99.90
51922;DHT22;37948;53.260;6.394;2022-12-07T04:44:19;4.20;99.90
51922;DHT22;37948;53.260;6.394;2022-12-07T04:46:45;4.20;99.90
51922;DHT22;37948;53.260;6.394;2022-12-07T04:49:12;4.20;99.90
51922;DHT22;37948;53.260;6.394;2022-12-07T04:51:38;4.20;99.90
51922;DHT22;37948;53.260;6.394;2022-12-07T04:54:04;4.20;99.90
51922;DHT22;37948;53.260;6.394;2022-12-07T04:56:29;4.10;99.90
51922;DHT22;37948;53.260;6.394;2022-12-07T04:58:55;4.10;99.90
51922;DHT22;37948;53.260;6.394;2022-12-07T05:01:22;4.10;99.90
51922;DHT22;37948;53.260;6.394;2022-12-07T05:03:47;4.00;99.90
51922;DHT22;37948;53.260;6.394;2022-12-07T05:06:13;4.00;99.90
51922;DHT22;37948;53.260;6.394;2022-12-07T05:08:40;3.90;99.90
51922;DHT22;37948;53.260;6.394;2022-12-07T05:11:06;3.80;99.90
51922;DHT22;37948;53.260;6.394;2022-12-07T05:13:32;3.80;99.90
51922;DHT22;37948;53.260;6.394;2022-12-07T05:15:58;3.60;99.90
51922;DHT22;37948;53.260;6.394;2022-12-07T05:18:24;3.50;99.90
51922;DHT22;37948;53.260;6.394;2022-12-07T05:20:50;3.40;99.90
51922;DHT22;37948;53.260;6.394;2022-12-07T05:23:17;3.30;99.90
51922;DHT22;37948;53.260;6.394;2022-12-07T05:25:42;3.30;99.90
51922;DHT22;37948;53.260;6.394;2022-12-07T05:28:08;3.20;99.90
51922;DHT22;37948;53.260;6.394;2022-12-07T05:30:34;3.10;99.90
51922;DHT22;37948;53.260;6.394;2022-12-07T05:32:59;3.10;99.90
51922;DHT22;37948;53.260;6.394;2022-12-07T05:35:25;3.10;99.90
51922;DHT22;37948;53.260;6.394;2022-12-07T05:37:50;3.00;99.90
51922;DHT22;37948;53.260;6.394;2022-12-07T05:40:16;2.90;99.90
51922;DHT22;37948;53.260;6.394;2022-12-07T05:42:44;2.80;99.90
51922;DHT22;37948;53.260;6.394;2022-12-07T05:45:10;2.80;99.90
51922;DHT22;37948;53.260;6.394;2022-12-07T05:47:36;2.80;99.90
51922;DHT22;37948;53.260;6.394;2022-12-07T05:50:03;2.70;99.90
51922;DHT22;37948;53.260;6.394;2022-12-07T05:52:28;2.70;99.90
51922;DHT22;37948;53.260;6.394;2022-12-07T05:54:54;2.70;99.90
51922;DHT22;37948;53.260;6.394;2022-12-07T05:57:20;2.70;99.90
51922;DHT22;37948;53.260;6.394;2022-12-07T05:59:45;2.60;99.90
51922;DHT22;37948;53.260;6.394;2022-12-07T06:02:13;2.60;99.90
51922;DHT22;37948;53.260;6.394;2022-12-07T06:04:43;2.60;99.90
51922;DHT22;37948;53.260;6.394;2022-12-07T06:07:10;2.70;99.90
51922;DHT22;37948;53.260;6.394;2022-12-07T06:09:36;2.90;99.90
51922;DHT22;37948;53.260;6.394;2022-12-07T06:12:03;3.00;99.90
51922;DHT22;37948;53.260;6.394;2022-12-07T06:14:47;3.10;99.90
51922;DHT22;37948;53.260;6.394;2022-12-07T06:17:13;3.10;99.90
51922;DHT22;37948;53.260;6.394;2022-12-07T06:19:39;3.20;99.90
51922;DHT22;37948;53.260;6.394;2022-12-07T06:22:05;3.20;99.90
51922;DHT22;37948;53.260;6.394;2022-12-07T06:24:32;3.20;99.90
51922;DHT22;37948;53.260;6.394;2022-12-07T06:26:58;3.20;99.90
51922;DHT22;37948;53.260;6.394;2022-12-07T06:29:24;3.20;99.90
51922;DHT22;37948;53.260;6.394;2022-12-07T06:31:50;3.20;99.90
51922;DHT22;37948;53.260;6.394;2022-12-07T06:34:18;3.10;99.90
51922;DHT22;37948;53.260;6.394;2022-12-07T06:36:44;3.10;99.90
51922;DHT22;37948;53.260;6.394;2022-12-07T06:39:10;3.10;99.90
51922;DHT22;37948;53.260;6.394;2022-12-07T06:41:37;3.00;99.90
51922;DHT22;37948;53.260;6.394;2022-12-07T06:44:03;2.90;99.90
51922;DHT22;37948;53.260;6.394;2022-12-07T06:46:29;2.90;99.90
51922;DHT22;37948;53.260;6.394;2022-12-07T06:48:55;2.80;99.90
51922;DHT22;37948;53.260;6.394;2022-12-07T06:51:21;2.80;99.90
51922;DHT22;37948;53.260;6.394;2022-12-07T06:53:47;2.70;99.90
51922;DHT22;37948;53.260;6.394;2022-12-07T06:56:12;2.70;99.90
51922;DHT22;37948;53.260;6.394;2022-12-07T06:58:39;2.60;99.90
51922;DHT22;37948;53.260;6.394;2022-12-07T07:01:09;2.60;99.90
51922;DHT22;37948;53.260;6.394;2022-12-07T07:03:35;2.60;99.90
51922;DHT22;37948;53.260;6.394;2022-12-07T07:06:01;2.60;99.90
51922;DHT22;37948;53.260;6.394;2022-12-07T07:08:26;2.70;99.90
51922;DHT22;37948;53.260;6.394;2022-12-07T07:10:52;2.70;99.90
51922;DHT22;37948;53.260;6.394;2022-12-07T07:13:17;2.80;99.90
51922;DHT22;37948;53.260;6.394;2022-12-07T07:15:43;2.90;99.90
51922;DHT22;37948;53.260;6.394;2022-12-07T07:18:09;2.90;99.90
51922;DHT22;37948;53.260;6.394;2022-12-07T07:20:34;2.90;99.90
51922;DHT22;37948;53.260;6.394;2022-12-07T07:23:00;3.00;99.90
51922;DHT22;37948;53.260;6.394;2022-12-07T07:25:26;3.00;99.90
51922;DHT22;37948;53.260;6.394;2022-12-07T07:27:51;3.00;99.90
51922;DHT22;37948;53.260;6.394;2022-12-07T07:30:17;3.00;99.90
51922;DHT22;37948;53.260;6.394;2022-12-07T07:32:42;3.10;99.90
51922;DHT22;37948;53.260;6.394;2022-12-07T07:35:08;3.00;99.90
51922;DHT22;37948;53.260;6.394;2022-12-07T07:37:34;3.00;99.90
51922;DHT22;37948;53.260;6.394;2022-12-07T07:39:59;3.00;99.90
51922;DHT22;37948;53.260;6.394;2022-12-07T07:42:25;2.90;99.90
51922;DHT22;37948;53.260;6.394;2022-12-07T07:44:51;2.90;99.90
51922;DHT22;37948;53.260;6.394;2022-12-07T07:47:16;2.90;99.90
51922;DHT22;37948;53.260;6.394;2022-12-07T07:49:42;2.80;99.90
51922;DHT22;37948;53.260;6.394;2022-12-07T07:52:07;2.80;99.90
51922;DHT22;37948;53.260;6.394;2022-12-07T07:54:33;2.80;99.90
51922;DHT22;37948;53.260;6.394;2022-12-07T07:56:58;2.80;99.90
51922;DHT22;37948;53.260;6.394;2022-12-07T07:59:24;2.80;99.90
51922;DHT22;37948;53.260;6.394;2022-12-07T08:01:50;2.80;99.90
51922;DHT22;37948;53.260;6.394;2022-12-07T08:04:16;2.80;99.90
51922;DHT22;37948;53.260;6.394;2022-12-07T08:06:41;2.70;99.90
51922;DHT22;37948;53.260;6.394;2022-12-07T08:09:07;2.70;99.90
51922;DHT22;37948;53.260;6.394;2022-12-07T08:11:33;2.60;99.90
51922;DHT22;37948;53.260;6.394;2022-12-07T08:13:59;2.60;99.90
51922;DHT22;37948;53.260;6.394;2022-12-07T08:16:24;2.60;99.90
51922;DHT22;37948;53.260;6.394;2022-12-07T08:18:50;2.60;99.90
51922;DHT22;37948;53.260;6.394;2022-12-07T08:21:16;2.60;99.90
51922;DHT22;37948;53.260;6.394;2022-12-07T08:23:42;2.60;99.90
51922;DHT22;37948;53.260;6.394;2022-12-07T08:26:12;2.60;99.90
51922;DHT22;37948;53.260;6.394;2022-12-07T08:28:39;2.60;99.90
51922;DHT22;37948;53.260;6.394;2022-12-07T08:31:07;2.60;99.90
51922;DHT22;37948;53.260;6.394;2022-12-07T08:33:34;2.60;99.90
51922;DHT22;37948;53.260;6.394;2022-12-07T08:36:04;2.70;99.90
51922;DHT22;37948;53.260;6.394;2022-12-07T08:38:30;2.70;99.90
51922;DHT22;37948;53.260;6.394;2022-12-07T08:40:57;2.70;99.90
51922;DHT22;37948;53.260;6.394;2022-12-07T08:43:23;2.80;99.90
51922;DHT22;37948;53.260;6.394;2022-12-07T08:46:03;3.00;99.90
51922;DHT22;37948;53.260;6.394;2022-12-07T08:48:30;3.00;99.90
51922;DHT22;37948;53.260;6.394;2022-12-07T08:50:56;3.10;99.90
51922;DHT22;37948;53.260;6.394;2022-12-07T08:53:21;3.20;99.90
51922;DHT22;37948;53.260;6.394;2022-12-07T08:55:48;3.30;99.90
51922;DHT22;37948;53.260;6.394;2022-12-07T08:58:14;3.50;99.90
51922;DHT22;37948;53.260;6.394;2022-12-07T09:00:39;3.60;99.90
51922;DHT22;37948;53.260;6.394;2022-12-07T09:03:05;3.70;99.90
51922;DHT22;37948;53.260;6.394;2022-12-07T09:05:32;3.80;99.90
51922;DHT22;37948;53.260;6.394;2022-12-07T09:08:01;3.90;99.90
51922;DHT22;37948;53.260;6.394;2022-12-07T09:10:27;3.90;99.90
51922;DHT22;37948;53.260;6.394;2022-12-07T09:12:53;4.00;99.90
51922;DHT22;37948;53.260;6.394;2022-12-07T09:15:18;4.00;99.90
51922;DHT22;37948;53.260;6.394;2022-12-07T09:17:44;4.10;99.90
51922;DHT22;37948;53.260;6.394;2022-12-07T09:20:10;4.10;99.90
51922;DHT22;37948;53.260;6.394;2022-12-07T09:22:35;4.20;99.90
51922;DHT22;37948;53.260;6.394;2022-12-07T09:25:01;4.20;99.90
51922;DHT22;37948;53.260;6.394;2022-12-07T09:27:27;4.20;99.90
51922;DHT22;37948;53.260;6.394;2022-12-07T09:29:52;4.20;99.90
51922;DHT22;37948;53.260;6.394;2022-12-07T09:32:18;4.20;99.90
51922;DHT22;37948;53.260;6.394;2022-12-07T09:34:44;4.20;99.90
51922;DHT22;37948;53.260;6.394;2022-12-07T09:37:09;4.20;99.90
51922;DHT22;37948;53.260;6.394;2022-12-07T09:39:38;4.10;99.90
51922;DHT22;37948;53.260;6.394;2022-12-07T09:42:05;4.20;99.90
51922;DHT22;37948;53.260;6.394;2022-12-07T09:44:31;4.20;99.90
51922;DHT22;37948;53.260;6.394;2022-12-07T09:46:57;4.20;99.90
51922;DHT22;37948;53.260;6.394;2022-12-07T09:49:35;4.20;99.90
51922;DHT22;37948;53.260;6.394;2022-12-07T09:52:19;4.20;99.90
51922;DHT22;37948;53.260;6.394;2022-12-07T09:54:48;4.20;99.90
51922;DHT22;37948;53.260;6.394;2022-12-07T09:57:15;4.20;99.90
51922;DHT22;37948;53.260;6.394;2022-12-07T09:59:41;4.20;99.90
51922;DHT22;37948;53.260;6.394;2022-12-07T10:02:28;4.30;99.90
51922;DHT22;37948;53.260;6.394;2022-12-07T10:04:59;4.30;99.90
51922;DHT22;37948;53.260;6.394;2022-12-07T10:07:24;4.40;99.90
51922;DHT22;37948;53.260;6.394;2022-12-07T10:09:50;4.50;99.90
51922;DHT22;37948;53.260;6.394;2022-12-07T10:12:15;4.50;99.90
51922;DHT22;37948;53.260;6.394;2022-12-07T10:14:59;4.60;99.90
51922;DHT22;37948;53.260;6.394;2022-12-07T10:17:39;4.70;99.90
51922;DHT22;37948;53.260;6.394;2022-12-07T10:22:37;4.80;99.90
51922;DHT22;37948;53.260;6.394;2022-12-07T10:25:18;4.80;99.90
51922;DHT22;37948;53.260;6.394;2022-12-07T10:28:18;4.90;99.90
51922;DHT22;37948;53.260;6.394;2022-12-07T10:30:57;4.90;99.90
51922;DHT22;37948;53.260;6.394;2022-12-07T10:33:38;4.90;99.90
51922;DHT22;37948;53.260;6.394;2022-12-07T10:36:19;5.00;99.90
51922;DHT22;37948;53.260;6.394;2022-12-07T10:38:58;5.00;99.90
51922;DHT22;37948;53.260;6.394;2022-12-07T10:41:24;5.10;99.90
51922;DHT22;37948;53.260;6.394;2022-12-07T10:43:57;5.20;99.90
51922;DHT22;37948;53.260;6.394;2022-12-07T10:54:17;4.90;99.90
51922;DHT22;37948;53.260;6.394;2022-12-07T11:11:16;4.50;99.90
51922;DHT22;37948;53.260;6.394;2022-12-07T11:21:58;4.50;99.90
51922;DHT22;37948;53.260;6.394;2022-12-07T11:27:42;4.50;99.90
51922;DHT22;37948;53.260;6.394;2022-12-07T11:33:29;4.50;99.90
51922;DHT22;37948;53.260;6.394;2022-12-07T11:42:00;4.70;99.90
51922;DHT22;37948;53.260;6.394;2022-12-07T11:47:41;4.80;99.90
51922;DHT22;37948;53.260;6.394;2022-12-07T11:55:49;4.90;99.90
51922;DHT22;37948;53.260;6.394;2022-12-07T12:00:49;5.00;99.90
51922;DHT22;37948;53.260;6.394;2022-12-07T12:03:26;5.00;99.90
51922;DHT22;37948;53.260;6.394;2022-12-07T12:05:56;5.00;99.90
51922;DHT22;37948;53.260;6.394;2022-12-07T12:08:34;5.00;99.90
51922;DHT22;37948;53.260;6.394;2022-12-07T12:21:56;5.00;99.90
51922;DHT22;37948;53.260;6.394;2022-12-07T12:24:26;5.00;99.90
51922;DHT22;37948;53.260;6.394;2022-12-07T12:27:03;5.00;99.90
51922;DHT22;37948;53.260;6.394;2022-12-07T12:42:50;5.10;99.90
51922;DHT22;37948;53.260;6.394;2022-12-07T12:50:35;4.90;99.90
51922;DHT22;37948;53.260;6.394;2022-12-07T13:00:46;4.70;99.90
51922;DHT22;37948;53.260;6.394;2022-12-07T13:03:28;4.60;99.90
51922;DHT22;37948;53.260;6.394;2022-12-07T13:08:52;4.50;99.90
51922;DHT22;37948;53.260;6.394;2022-12-07T13:11:28;4.40;99.90
51922;DHT22;37948;53.260;6.394;2022-12-07T13:16:58;4.40;99.90
51922;DHT22;37948;53.260;6.394;2022-12-07T13:19:53;4.40;99.90
51922;DHT22;37948;53.260;6.394;2022-12-07T13:27:39;4.30;99.90
51922;DHT22;37948;53.260;6.394;2022-12-07T13:30:17;4.40;99.90
51922;DHT22;37948;53.260;6.394;2022-12-07T13:32:52;4.40;99.90
51922;DHT22;37948;53.260;6.394;2022-12-07T13:35:32;4.40;99.90
51922;DHT22;37948;53.260;6.394;2022-12-07T13:38:01;4.40;99.90
51922;DHT22;37948;53.260;6.394;2022-12-07T13:40:27;4.40;99.90
51922;DHT22;37948;53.260;6.394;2022-12-07T13:43:04;4.40;99.90
51922;DHT22;37948;53.260;6.394;2022-12-07T13:45:38;4.30;99.90
51922;DHT22;37948;53.260;6.394;2022-12-07T13:48:23;4.30;99.90
51922;DHT22;37948;53.260;6.394;2022-12-07T13:50:55;4.30;99.90
51922;DHT22;37948;53.260;6.394;2022-12-07T13:53:21;4.30;99.90
51922;DHT22;37948;53.260;6.394;2022-12-07T13:55:47;4.30;99.90
51922;DHT22;37948;53.260;6.394;2022-12-07T13:58:13;4.20;99.90
51922;DHT22;37948;53.260;6.394;2022-12-07T14:00:40;4.10;99.90
51922;DHT22;37948;53.260;6.394;2022-12-07T14:05:42;4.10;99.90
51922;DHT22;37948;53.260;6.394;2022-12-07T14:10:39;3.90;99.90
51922;DHT22;37948;53.260;6.394;2022-12-07T14:13:36;3.90;99.90
51922;DHT22;37948;53.260;6.394;2022-12-07T14:18:43;3.80;99.90
51922;DHT22;37948;53.260;6.394;2022-12-07T14:23:34;3.80;99.90
51922;DHT22;37948;53.260;6.394;2022-12-07T14:26:12;3.80;99.90
51922;DHT22;37948;53.260;6.394;2022-12-07T14:28:39;3.80;99.90
51922;DHT22;37948;53.260;6.394;2022-12-07T14:31:24;3.90;99.90
51922;DHT22;37948;53.260;6.394;2022-12-07T14:33:50;3.90;99.90
51922;DHT22;37948;53.260;6.394;2022-12-07T14:36:16;3.90;99.90
51922;DHT22;37948;53.260;6.394;2022-12-07T14:38:41;3.90;99.90
51922;DHT22;37948;53.260;6.394;2022-12-07T14:41:14;3.80;99.90
51922;DHT22;37948;53.260;6.394;2022-12-07T14:43:59;3.80;99.90
51922;DHT22;37948;53.260;6.394;2022-12-07T14:46:25;3.70;99.90
51922;DHT22;37948;53.260;6.394;2022-12-07T14:48:51;3.70;99.90
51922;DHT22;37948;53.260;6.394;2022-12-07T14:51:16;3.70;99.90
51922;DHT22;37948;53.260;6.394;2022-12-07T14:53:49;3.60;99.90
51922;DHT22;37948;53.260;6.394;2022-12-07T14:56:15;3.60;99.90
51922;DHT22;37948;53.260;6.394;2022-12-07T14:58:41;3.60;99.90
51922;DHT22;37948;53.260;6.394;2022-12-07T15:01:06;3.50;99.90
51922;DHT22;37948;53.260;6.394;2022-12-07T15:03:32;3.50;99.90
51922;DHT22;37948;53.260;6.394;2022-12-07T15:06:00;3.40;99.90
51922;DHT22;37948;53.260;6.394;2022-12-07T15:08:26;3.30;99.90
51922;DHT22;37948;53.260;6.394;2022-12-07T15:10:52;3.30;99.90
51922;DHT22;37948;53.260;6.394;2022-12-07T15:13:18;3.20;99.90
51922;DHT22;37948;53.260;6.394;2022-12-07T15:16:02;3.10;99.90
51922;DHT22;37948;53.260;6.394;2022-12-07T15:18:28;3.10;99.90
51922;DHT22;37948;53.260;6.394;2022-12-07T15:20:53;3.10;99.90
51922;DHT22;37948;53.260;6.394;2022-12-07T15:23:19;3.10;99.90
51922;DHT22;37948;53.260;6.394;2022-12-07T15:25:46;3.00;99.90
51922;DHT22;37948;53.260;6.394;2022-12-07T15:28:13;3.00;99.90
51922;DHT22;37948;53.260;6.394;2022-12-07T15:30:39;3.00;99.90
51922;DHT22;37948;53.260;6.394;2022-12-07T15:33:05;3.00;99.90
51922;DHT22;37948;53.260;6.394;2022-12-07T15:35:31;3.00;99.90
51922;DHT22;37948;53.260;6.394;2022-12-07T15:37:56;3.00;99.90
51922;DHT22;37948;53.260;6.394;2022-12-07T15:40:22;3.00;99.90
51922;DHT22;37948;53.260;6.394;2022-12-07T15:42:48;3.00;99.90
51922;DHT22;37948;53.260;6.394;2022-12-07T15:45:13;3.00;99.90
51922;DHT22;37948;53.260;6.394;2022-12-07T15:47:41;2.90;99.90
51922;DHT22;37948;53.260;6.394;2022-12-07T15:50:13;3.00;99.90
51922;DHT22;37948;53.260;6.394;2022-12-07T15:52:39;3.00;99.90
51922;DHT22;37948;53.260;6.394;2022-12-07T15:55:05;2.90;99.90
51922;DHT22;37948;53.260;6.394;2022-12-07T15:57:32;2.90;99.90
51922;DHT22;37948;53.260;6.394;2022-12-07T15:59:58;2.90;99.90
51922;DHT22;37948;53.260;6.394;2022-12-07T16:02:24;2.90;99.90
51922;DHT22;37948;53.260;6.394;2022-12-07T16:04:51;2.90;99.90
51922;DHT22;37948;53.260;6.394;2022-12-07T16:07:17;2.90;99.90
51922;DHT22;37948;53.260;6.394;2022-12-07T16:09:44;2.90;99.90
51922;DHT22;37948;53.260;6.394;2022-12-07T16:12:11;2.90;99.90
51922;DHT22;37948;53.260;6.394;2022-12-07T16:14:37;3.00;99.90
51922;DHT22;37948;53.260;6.394;2022-12-07T16:17:03;2.90;99.90
51922;DHT22;37948;53.260;6.394;2022-12-07T16:19:30;3.00;99.90
51922;DHT22;37948;53.260;6.394;2022-12-07T16:21:56;3.00;99.90
51922;DHT22;37948;53.260;6.394;2022-12-07T16:24:22;3.10;99.90
51922;DHT22;37948;53.260;6.394;2022-12-07T16:26:48;3.00;99.90
51922;DHT22;37948;53.260;6.394;2022-12-07T16:29:14;3.00;99.90
51922;DHT22;37948;53.260;6.394;2022-12-07T16:31:40;3.00;99.90
51922;DHT22;37948;53.260;6.394;2022-12-07T16:34:06;3.00;99.90
51922;DHT22;37948;53.260;6.394;2022-12-07T16:36:32;3.00;99.90
51922;DHT22;37948;53.260;6.394;2022-12-07T16:38:59;3.00;99.90
51922;DHT22;37948;53.260;6.394;2022-12-07T16:41:24;3.10;99.90
51922;DHT22;37948;53.260;6.394;2022-12-07T16:43:50;3.10;99.90
51922;DHT22;37948;53.260;6.394;2022-12-07T16:46:16;3.00;99.90
51922;DHT22;37948;53.260;6.394;2022-12-07T16:48:42;3.10;99.90
51922;DHT22;37948;53.260;6.394;2022-12-07T16:51:10;3.00;99.90
51922;DHT22;37948;53.260;6.394;2022-12-07T16:53:37;3.10;99.90
51922;DHT22;37948;53.260;6.394;2022-12-07T16:56:04;3.10;99.90
51922;DHT22;37948;53.260;6.394;2022-12-07T16:58:30;3.00;99.90
51922;DHT22;37948;53.260;6.394;2022-12-07T17:00:56;3.00;99.90
51922;DHT22;37948;53.260;6.394;2022-12-07T17:03:22;3.00;99.90
51922;DHT22;37948;53.260;6.394;2022-12-07T17:05:47;3.00;99.90
51922;DHT22;37948;53.260;6.394;2022-12-07T17:08:14;3.00;99.90
51922;DHT22;37948;53.260;6.394;2022-12-07T17:10:43;3.00;99.90
51922;DHT22;37948;53.260;6.394;2022-12-07T17:13:09;3.00;99.90
51922;DHT22;37948;53.260;6.394;2022-12-07T17:16:07;3.00;99.90
51922;DHT22;37948;53.260;6.394;2022-12-07T17:18:34;3.00;99.90
51922;DHT22;37948;53.260;6.394;2022-12-07T17:21:05;3.00;99.90
51922;DHT22;37948;53.260;6.394;2022-12-07T17:23:32;3.00;99.90
51922;DHT22;37948;53.260;6.394;2022-12-07T17:26:19;3.00;99.90
51922;DHT22;37948;53.260;6.394;2022-12-07T17:28:45;3.00;99.90
51922;DHT22;37948;53.260;6.394;2022-12-07T17:31:13;3.10;99.90
51922;DHT22;37948;53.260;6.394;2022-12-07T17:33:39;3.10;99.90
51922;DHT22;37948;53.260;6.394;2022-12-07T17:36:16;3.10;99.90
51922;DHT22;37948;53.260;6.394;2022-12-07T17:38:41;3.10;99.90
51922;DHT22;37948;53.260;6.394;2022-12-07T17:44:05;3.10;99.90
51922;DHT22;37948;53.260;6.394;2022-12-07T17:46:31;3.10;99.90
51922;DHT22;37948;53.260;6.394;2022-12-07T17:48:57;3.10;99.90
51922;DHT22;37948;53.260;6.394;2022-12-07T17:51:23;3.00;99.90
51922;DHT22;37948;53.260;6.394;2022-12-07T17:54:08;3.00;99.90
51922;DHT22;37948;53.260;6.394;2022-12-07T17:56:34;3.00;99.90
51922;DHT22;37948;53.260;6.394;2022-12-07T17:59:00;3.00;99.90
51922;DHT22;37948;53.260;6.394;2022-12-07T18:01:26;3.00;99.90
51922;DHT22;37948;53.260;6.394;2022-12-07T18:03:51;2.90;99.90
51922;DHT22;37948;53.260;6.394;2022-12-07T18:06:17;2.90;99.90
51922;DHT22;37948;53.260;6.394;2022-12-07T18:08:42;2.90;99.90
51922;DHT22;37948;53.260;6.394;2022-12-07T18:11:08;2.90;99.90
51922;DHT22;37948;53.260;6.394;2022-12-07T18:13:34;2.90;99.90
51922;DHT22;37948;53.260;6.394;2022-12-07T18:16:23;2.90;99.90